createdAt,value
2022-09-23T00:01:20.580Z,19.91
2022-09-23T00:03:49.098Z,19.91
2022-09-23T00:06:19.748Z,19.90
2022-09-23T00:08:49.564Z,19.90
2022-09-23T00:11:20.235Z,19.90
2022-09-23T00:13:49.680Z,19.90
2022-09-23T00:16:21.004Z,19.91
2022-09-23T00:18:50.288Z,19.90
2022-09-23T00:21:19.536Z,19.90
2022-09-23T00:23:48.173Z,19.89
2022-09-23T00:26:17.296Z,19.89
2022-09-23T00:28:44.997Z,19.89
2022-09-23T00:31:21.695Z,19.89
2022-09-23T00:34:02.124Z,19.88
2022-09-23T00:36:32.299Z,19.87
2022-09-23T00:39:00.151Z,19.86
2022-09-23T00:41:27.975Z,19.88
2022-09-23T00:43:58.618Z,19.87
2022-09-23T00:46:41.866Z,19.87
2022-09-23T00:49:22.561Z,19.86
2022-09-23T00:51:55.774Z,19.86
2022-09-23T00:54:27.308Z,19.86
2022-09-23T00:56:56.315Z,19.86
2022-09-23T00:59:26.065Z,19.86
2022-09-23T01:01:55.854Z,19.85
2022-09-23T01:04:25.246Z,19.87
2022-09-23T01:06:53.236Z,19.86
2022-09-23T01:09:22.264Z,19.86
2022-09-23T01:12:27.943Z,19.86
2022-09-23T01:15:13.585Z,19.85
2022-09-23T01:18:04.213Z,19.85
2022-09-23T01:20:41.941Z,19.84
2022-09-23T01:23:40.363Z,19.84
2022-09-23T01:26:32.529Z,19.84
2022-09-23T01:29:33.361Z,19.84
2022-09-23T01:32:15.022Z,19.83
2022-09-23T01:34:53.558Z,19.83
2022-09-23T01:37:50.997Z,19.84
2022-09-23T01:40:26.296Z,19.83
2022-09-23T01:42:58.836Z,19.83
2022-09-23T01:45:36.100Z,19.83
2022-09-23T01:48:14.854Z,19.82
2022-09-23T01:51:12.503Z,19.82
2022-09-23T01:53:58.709Z,19.81
2022-09-23T01:56:31.432Z,19.82
2022-09-23T01:59:09.365Z,19.81
2022-09-23T02:01:44.738Z,19.81
2022-09-23T02:04:22.785Z,19.81
2022-09-23T02:06:58.249Z,19.80
2022-09-23T02:09:32.934Z,19.80
2022-09-23T02:12:05.757Z,19.80
2022-09-23T02:14:42.749Z,19.79
2022-09-23T02:17:17.031Z,19.79
2022-09-23T02:19:53.949Z,19.78
2022-09-23T02:22:28.478Z,19.80
2022-09-23T02:24:57.711Z,19.80
2022-09-23T02:27:39.080Z,19.78
2022-09-23T02:30:13.409Z,19.78
2022-09-23T02:32:53.444Z,19.78
2022-09-23T02:35:35.385Z,19.77
2022-09-23T02:38:25.930Z,19.77
2022-09-23T02:41:32.637Z,19.78
2022-09-23T02:44:04.846Z,19.78
2022-09-23T02:46:32.779Z,19.77
2022-09-23T02:49:11.243Z,19.77
2022-09-23T02:51:39.746Z,19.76
2022-09-23T02:54:10.673Z,19.76
2022-09-23T02:56:40.046Z,19.76
2022-09-23T02:59:08.944Z,19.77
2022-09-23T03:02:01.856Z,19.75
2022-09-23T03:04:51.206Z,19.75
2022-09-23T03:07:44.054Z,19.75
2022-09-23T03:10:40.128Z,19.75
2022-09-23T03:13:19.444Z,19.76
2022-09-23T03:15:56.201Z,19.74
2022-09-23T03:18:48.641Z,19.75
2022-09-23T03:21:30.517Z,19.73
2022-09-23T03:24:02.737Z,19.73
2022-09-23T03:26:40.784Z,19.74
2022-09-23T03:29:11.216Z,19.73
2022-09-23T03:31:41.293Z,19.71
2022-09-23T03:34:23.706Z,19.71
2022-09-23T03:37:07.846Z,19.71
2022-09-23T03:40:01.253Z,19.71
2022-09-23T03:42:31.417Z,19.69
2022-09-23T03:45:01.303Z,19.70
2022-09-23T03:47:28.912Z,19.70
2022-09-23T03:49:56.759Z,19.70
2022-09-23T03:52:25.333Z,19.70
2022-09-23T03:54:53.462Z,19.69
2022-09-23T03:57:22.087Z,19.69
2022-09-23T03:59:50.564Z,19.69
2022-09-23T04:02:20.245Z,19.69
2022-09-23T04:04:47.734Z,19.70
2022-09-23T04:07:15.210Z,19.69
2022-09-23T04:09:42.910Z,19.68
2022-09-23T04:12:16.041Z,19.68
2022-09-23T04:14:45.193Z,19.67
2022-09-23T04:17:13.310Z,19.67
2022-09-23T04:19:41.472Z,19.66
2022-09-23T04:22:09.664Z,19.65
2022-09-23T04:24:37.288Z,19.65
2022-09-23T04:27:05.970Z,19.65
2022-09-23T04:29:33.525Z,19.64
2022-09-23T04:32:01.097Z,19.64
2022-09-23T04:34:28.534Z,19.64
2022-09-23T04:36:56.041Z,19.64
2022-09-23T04:39:24.201Z,19.64
2022-09-23T04:41:51.570Z,19.63
2022-09-23T04:44:20.098Z,19.63
2022-09-23T04:46:48.112Z,19.63
2022-09-23T04:49:16.586Z,19.61
2022-09-23T04:51:45.516Z,19.61
2022-09-23T04:54:14.991Z,19.62
2022-09-23T04:56:42.640Z,19.60
2022-09-23T04:59:10.535Z,19.61
2022-09-23T05:01:38.301Z,19.61
2022-09-23T05:04:10.076Z,19.61
2022-09-23T05:06:38.214Z,19.61
2022-09-23T05:09:07.802Z,19.60
2022-09-23T05:11:35.509Z,19.60
2022-09-23T05:14:03.220Z,19.61
2022-09-23T05:16:30.755Z,19.60
2022-09-23T05:18:58.348Z,19.60
2022-09-23T05:21:28.842Z,19.61
2022-09-23T05:23:59.034Z,19.62
2022-09-23T05:26:30.102Z,19.61
2022-09-23T05:28:58.510Z,19.60
2022-09-23T05:31:30.459Z,19.60
2022-09-23T05:34:01.438Z,19.61
2022-09-23T05:36:34.257Z,19.61
2022-09-23T05:39:04.173Z,19.62
2022-09-23T05:41:31.569Z,19.63
2022-09-23T05:43:59.792Z,19.62
2022-09-23T05:46:29.761Z,19.63
2022-09-23T05:49:02.085Z,19.62
2022-09-23T05:51:33.217Z,19.62
2022-09-23T05:54:03.902Z,19.62
2022-09-23T05:56:33.058Z,19.63
2022-09-23T05:59:01.828Z,19.63
2022-09-23T06:01:35.271Z,19.64
2022-09-23T06:04:05.083Z,19.64
2022-09-23T06:06:36.364Z,19.65
2022-09-23T06:09:04.845Z,19.66
2022-09-23T06:11:34.167Z,19.66
2022-09-23T06:14:02.508Z,19.67
2022-09-23T06:16:33.585Z,19.69
2022-09-23T06:19:06.135Z,19.68
2022-09-23T06:21:36.550Z,19.70
2022-09-23T06:24:05.157Z,19.71
2022-09-23T06:26:35.019Z,19.72
2022-09-23T06:29:09.933Z,19.72
2022-09-23T06:31:38.282Z,19.73
2022-09-23T06:34:11.904Z,19.75
2022-09-23T06:36:45.000Z,19.77
2022-09-23T06:39:15.383Z,19.77
2022-09-23T06:41:43.994Z,19.78
2022-09-23T06:44:11.470Z,19.80
2022-09-23T06:46:39.142Z,19.79
2022-09-23T06:49:06.761Z,19.82
2022-09-23T06:51:34.415Z,19.82
2022-09-23T06:54:01.975Z,19.83
2022-09-23T06:56:31.492Z,19.83
2022-09-23T06:59:02.209Z,19.85
2022-09-23T07:01:29.914Z,19.87
2022-09-23T07:03:57.489Z,19.87
2022-09-23T07:06:24.855Z,19.89
2022-09-23T07:08:52.792Z,19.90
2022-09-23T07:11:22.399Z,19.89
2022-09-23T07:13:50.008Z,19.91
2022-09-23T07:16:17.590Z,19.92
2022-09-23T07:18:45.645Z,19.92
2022-09-23T07:21:18.112Z,19.95
2022-09-23T07:23:50.337Z,19.95
2022-09-23T07:26:19.180Z,19.95
2022-09-23T07:28:46.713Z,19.95
2022-09-23T07:31:24.609Z,19.96
2022-09-23T07:33:57.776Z,19.97
2022-09-23T07:36:27.882Z,19.97
2022-09-23T07:39:02.829Z,19.97
2022-09-23T07:41:32.950Z,19.98
2022-09-23T07:44:01.186Z,19.98
2022-09-23T07:46:34.300Z,20.00
2022-09-23T07:49:03.144Z,19.99
2022-09-23T07:51:36.770Z,20.01
2022-09-23T07:54:09.859Z,20.01
2022-09-23T07:56:38.625Z,20.03
2022-09-23T07:59:08.877Z,20.03
2022-09-23T08:01:40.194Z,20.03
2022-09-23T08:04:30.634Z,20.04
2022-09-23T08:07:01.389Z,20.04
2022-09-23T08:09:34.243Z,20.04
2022-09-23T08:12:01.969Z,20.05
2022-09-23T08:14:29.350Z,20.05
2022-09-23T08:16:57.517Z,20.05
2022-09-23T08:19:24.963Z,20.06
2022-09-23T08:21:54.369Z,20.03
2022-09-23T08:24:24.114Z,20.06
2022-09-23T08:26:53.322Z,20.05
2022-09-23T08:29:23.230Z,20.06
2022-09-23T08:31:51.573Z,20.07
2022-09-23T08:34:21.308Z,20.08
2022-09-23T08:36:48.840Z,20.07
2022-09-23T08:39:18.161Z,20.07
2022-09-23T08:41:58.360Z,20.09
2022-09-23T08:44:43.433Z,20.09
2022-09-23T08:47:28.799Z,20.11
2022-09-23T08:50:12.235Z,20.12
2022-09-23T08:52:59.105Z,20.12
2022-09-23T08:55:41.987Z,20.16
2022-09-23T08:58:29.447Z,20.16
2022-09-23T09:01:15.940Z,20.17
2022-09-23T09:03:52.528Z,20.19
2022-09-23T09:06:51.874Z,20.19
2022-09-23T09:09:32.698Z,20.17
2022-09-23T09:12:14.160Z,20.18
2022-09-23T09:15:18.789Z,20.16
2022-09-23T09:17:48.396Z,20.14
2022-09-23T09:20:18.865Z,20.14
2022-09-23T09:23:00.569Z,20.13
2022-09-23T09:25:45.431Z,20.13
2022-09-23T09:28:22.118Z,20.12
2022-09-23T09:30:59.838Z,20.14
2022-09-23T09:33:50.510Z,20.12
2022-09-23T09:36:57.521Z,20.13
2022-09-23T09:39:26.713Z,20.12
2022-09-23T09:41:58.563Z,20.14
2022-09-23T09:44:37.051Z,20.18
2022-09-23T09:47:08.654Z,20.19
2022-09-23T09:49:41.973Z,20.20
2022-09-23T09:52:22.580Z,20.19
2022-09-23T09:54:50.945Z,20.17
2022-09-23T09:57:32.057Z,20.16
2022-09-23T10:00:39.298Z,20.16
2022-09-23T10:03:13.310Z,20.16
2022-09-23T10:05:43.922Z,20.16
2022-09-23T10:08:37.989Z,20.16
2022-09-23T10:11:17.245Z,20.16
2022-09-23T10:14:18.948Z,20.17
2022-09-23T10:17:01.782Z,20.18
2022-09-23T10:19:29.759Z,20.18
2022-09-23T10:22:01.345Z,20.18
2022-09-23T10:24:41.355Z,20.18
2022-09-23T10:27:12.061Z,20.19
2022-09-23T10:29:46.502Z,20.19
2022-09-23T10:32:30.633Z,20.19
2022-09-23T10:35:13.379Z,20.22
2022-09-23T10:37:48.280Z,20.22
2022-09-23T10:40:48.296Z,20.23
2022-09-23T10:43:50.791Z,20.23
2022-09-23T10:46:44.863Z,20.24
2022-09-23T10:50:07.829Z,20.27
2022-09-23T10:52:57.193Z,20.29
2022-09-23T10:55:50.779Z,20.30
2022-09-23T10:58:30.198Z,20.31
2022-09-23T11:01:28.485Z,20.33
2022-09-23T11:04:39.702Z,20.35
2022-09-23T11:07:25.208Z,20.36
2022-09-23T11:10:35.384Z,20.37
2022-09-23T11:13:44.270Z,20.39
2022-09-23T11:16:23.389Z,20.42
2022-09-23T11:19:21.530Z,20.43
2022-09-23T11:22:10.361Z,20.46
2022-09-23T11:24:53.123Z,20.46
2022-09-23T11:27:39.411Z,20.45
2022-09-23T11:30:14.822Z,20.48
2022-09-23T11:32:57.479Z,20.50
2022-09-23T11:35:31.354Z,20.50
2022-09-23T11:38:07.967Z,20.50
2022-09-23T11:40:41.050Z,20.51
2022-09-23T11:43:23.607Z,20.52
2022-09-23T11:45:58.649Z,20.53
2022-09-23T11:48:38.452Z,20.54
2022-09-23T11:51:20.666Z,20.55
2022-09-23T11:53:55.885Z,20.57
2022-09-23T11:56:35.332Z,20.57
2022-09-23T11:59:39.558Z,20.57
2022-09-23T12:02:20.114Z,20.59
2022-09-23T12:05:23.106Z,20.59
2022-09-23T12:07:57.690Z,20.59
2022-09-23T12:10:40.646Z,20.57
2022-09-23T12:13:20.145Z,20.58
2022-09-23T12:15:56.383Z,20.59
2022-09-23T12:18:35.780Z,20.60
2022-09-23T12:21:51.809Z,20.60
2022-09-23T12:24:47.254Z,20.60
2022-09-23T12:27:39.552Z,20.60
2022-09-23T12:30:14.041Z,20.62
2022-09-23T12:32:43.052Z,20.61
2022-09-23T12:35:45.154Z,20.62
2022-09-23T12:38:25.240Z,20.63
2022-09-23T12:40:54.950Z,20.64
2022-09-23T12:43:34.813Z,20.64
2022-09-23T12:46:25.715Z,20.65
2022-09-23T12:49:02.667Z,20.66
2022-09-23T12:51:35.497Z,20.68
2022-09-23T12:54:05.823Z,20.69
2022-09-23T12:56:36.185Z,20.70
2022-09-23T12:59:13.950Z,20.71
2022-09-23T13:01:42.280Z,20.73
2022-09-23T13:04:53.653Z,20.68
2022-09-23T13:07:30.835Z,20.65
2022-09-23T13:10:11.966Z,20.63
2022-09-23T13:12:43.282Z,20.61
2022-09-23T13:15:33.888Z,20.60
2022-09-23T13:18:49.510Z,20.61
2022-09-23T13:21:39.245Z,20.59
2022-09-23T13:24:13.177Z,20.59
2022-09-23T13:26:50.126Z,20.63
2022-09-23T13:29:27.944Z,20.66
2022-09-23T13:31:57.884Z,20.69
2022-09-23T13:34:31.347Z,20.67
2022-09-23T13:37:22.148Z,20.63
2022-09-23T13:39:51.355Z,20.62
2022-09-23T13:42:27.090Z,20.65
2022-09-23T13:45:00.430Z,20.66
2022-09-23T13:47:30.379Z,20.65
2022-09-23T13:49:58.018Z,20.66
2022-09-23T13:52:29.873Z,20.68
2022-09-23T13:54:57.603Z,20.68
2022-09-23T13:57:30.646Z,20.68
2022-09-23T14:00:03.173Z,20.69
2022-09-23T14:02:30.516Z,20.72
2022-09-23T14:04:58.841Z,20.73
2022-09-23T14:07:26.779Z,20.75
2022-09-23T14:09:55.672Z,20.75
2022-09-23T14:12:23.492Z,20.74
2022-09-23T14:14:52.386Z,20.77
2022-09-23T14:17:23.085Z,20.76
2022-09-23T14:19:51.274Z,20.77
2022-09-23T14:22:30.037Z,20.77
2022-09-23T14:24:58.482Z,20.78
2022-09-23T14:27:33.861Z,20.78
2022-09-23T14:30:03.704Z,20.78
2022-09-23T14:32:32.833Z,20.79
2022-09-23T14:35:00.796Z,20.79
2022-09-23T14:38:07.559Z,20.78
2022-09-23T14:41:18.261Z,20.80
2022-09-23T14:43:50.941Z,20.82
2022-09-23T14:46:20.373Z,20.83
2022-09-23T14:48:59.395Z,20.83
2022-09-23T14:51:42.883Z,20.85
2022-09-23T14:54:36.072Z,20.87
2022-09-23T14:57:25.058Z,20.87
2022-09-23T14:59:54.250Z,20.88
2022-09-23T15:02:44.903Z,20.89
2022-09-23T15:05:20.381Z,20.90
2022-09-23T15:07:50.671Z,20.91
2022-09-23T15:10:31.913Z,20.92
2022-09-23T15:13:12.036Z,20.92
2022-09-23T15:15:42.130Z,20.91
2022-09-23T15:18:18.699Z,20.91
2022-09-23T15:20:52.677Z,20.92
2022-09-23T15:23:46.898Z,20.91
2022-09-23T15:26:18.447Z,20.89
2022-09-23T15:28:48.190Z,20.89
2022-09-23T15:31:17.747Z,20.88
2022-09-23T15:33:47.669Z,20.87
2022-09-23T15:36:19.675Z,20.87
2022-09-23T15:38:48.598Z,20.87
2022-09-23T15:41:17.291Z,20.87
2022-09-23T15:43:46.495Z,20.86
2022-09-23T15:46:19.278Z,20.87
2022-09-23T15:48:58.611Z,20.85
2022-09-23T15:51:27.721Z,20.85
2022-09-23T15:53:56.346Z,20.85
2022-09-23T15:56:24.726Z,20.85
2022-09-23T15:58:52.110Z,20.85
2022-09-23T16:01:30.138Z,20.84
2022-09-23T16:04:01.226Z,20.83
2022-09-23T16:06:28.915Z,20.82
2022-09-23T16:08:56.735Z,20.82
2022-09-23T16:11:29.784Z,20.82
2022-09-23T16:13:58.148Z,20.81
2022-09-23T16:16:27.742Z,20.81
2022-09-23T16:18:55.519Z,20.80
2022-09-23T16:21:28.022Z,20.81
2022-09-23T16:23:57.190Z,20.79
2022-09-23T16:26:31.102Z,20.79
2022-09-23T16:28:59.661Z,20.79
2022-09-23T16:31:30.064Z,20.78
2022-09-23T16:34:02.262Z,20.76
2022-09-23T16:36:32.562Z,20.77
2022-09-23T16:39:03.797Z,20.77
2022-09-23T16:41:32.427Z,20.74
2022-09-23T16:44:02.119Z,20.74
2022-09-23T16:46:31.285Z,20.72
2022-09-23T16:48:59.415Z,20.70
2022-09-23T16:51:29.164Z,20.69
2022-09-23T16:53:58.485Z,20.68
2022-09-23T16:56:29.258Z,20.67
2022-09-23T16:58:57.190Z,20.67
2022-09-23T17:01:45.541Z,20.65
2022-09-23T17:04:16.124Z,20.65
2022-09-23T17:06:50.597Z,20.65
2022-09-23T17:09:19.982Z,20.63
2022-09-23T17:11:55.228Z,20.63
2022-09-23T17:14:22.775Z,20.62
2022-09-23T17:16:50.371Z,20.61
2022-09-23T17:19:17.759Z,20.60
2022-09-23T17:21:45.327Z,20.60
2022-09-23T17:24:12.775Z,20.59
2022-09-23T17:26:40.277Z,20.60
2022-09-23T17:29:10.036Z,20.59
2022-09-23T17:31:37.476Z,20.59
2022-09-23T17:34:04.815Z,20.58
2022-09-23T17:36:32.387Z,20.57
2022-09-23T17:38:59.738Z,20.55
2022-09-23T17:41:27.422Z,20.55
2022-09-23T17:43:57.094Z,20.55
2022-09-23T17:46:24.593Z,20.54
2022-09-23T17:48:55.597Z,20.54
2022-09-23T17:51:24.303Z,20.53
2022-09-23T17:53:51.622Z,20.52
2022-09-23T17:56:21.420Z,20.52
2022-09-23T17:58:50.443Z,20.50
2022-09-23T18:01:23.667Z,20.50
2022-09-23T18:03:56.587Z,20.50
2022-09-23T18:06:26.011Z,20.49
2022-09-23T18:08:53.758Z,20.48
2022-09-23T18:11:24.034Z,20.48
2022-09-23T18:13:56.805Z,20.47
2022-09-23T18:16:27.209Z,20.47
2022-09-23T18:18:59.108Z,20.46
2022-09-23T18:21:30.748Z,20.45
2022-09-23T18:24:15.648Z,20.46
2022-09-23T18:26:47.457Z,20.45
2022-09-23T18:29:15.979Z,20.45
2022-09-23T18:31:44.960Z,20.44
2022-09-23T18:34:16.765Z,20.43
2022-09-23T18:36:44.616Z,20.43
2022-09-23T18:39:12.513Z,20.43
2022-09-23T18:41:41.157Z,20.42
2022-09-23T18:44:09.593Z,20.42
2022-09-23T18:46:37.477Z,20.41
2022-09-23T18:49:24.697Z,20.42
2022-09-23T18:51:55.977Z,20.40
2022-09-23T18:54:27.653Z,20.40
2022-09-23T18:56:55.836Z,20.39
2022-09-23T18:59:25.868Z,20.39
2022-09-23T19:01:56.010Z,20.38
2022-09-23T19:04:25.460Z,20.36
2022-09-23T19:06:54.750Z,20.37
2022-09-23T19:09:22.173Z,20.37
2022-09-23T19:11:52.153Z,20.37
2022-09-23T19:14:20.079Z,20.36
2022-09-23T19:16:51.940Z,20.35
2022-09-23T19:19:19.868Z,20.35
2022-09-23T19:21:47.350Z,20.35
2022-09-23T19:24:20.362Z,20.34
2022-09-23T19:26:48.646Z,20.34
2022-09-23T19:29:21.754Z,20.34
2022-09-23T19:31:50.217Z,20.33
2022-09-23T19:34:21.062Z,20.33
2022-09-23T19:36:49.123Z,20.32
2022-09-23T19:39:21.023Z,20.32
2022-09-23T19:41:49.703Z,20.32
2022-09-23T19:44:19.776Z,20.31
2022-09-23T19:46:53.361Z,20.30
2022-09-23T19:49:24.741Z,20.29
2022-09-23T19:51:55.133Z,20.31
2022-09-23T19:54:24.544Z,20.30
2022-09-23T19:56:52.415Z,20.30
2022-09-23T19:59:20.145Z,20.29
2022-09-23T20:01:48.786Z,20.29
2022-09-23T20:04:16.880Z,20.29
2022-09-23T20:06:46.017Z,20.28
2022-09-23T20:09:13.667Z,20.29
2022-09-23T20:11:44.069Z,20.28
2022-09-23T20:14:12.993Z,20.27
2022-09-23T20:16:40.531Z,20.27
2022-09-23T20:19:09.796Z,20.28
2022-09-23T20:21:37.426Z,20.27
2022-09-23T20:24:06.470Z,20.27
2022-09-23T20:26:54.164Z,20.26
2022-09-23T20:29:22.234Z,20.26
2022-09-23T20:31:49.840Z,20.25
2022-09-23T20:34:19.456Z,20.26
2022-09-23T20:36:46.743Z,20.24
2022-09-23T20:39:14.317Z,20.25
2022-09-23T20:41:42.041Z,20.25
2022-09-23T20:44:14.202Z,20.24
2022-09-23T20:46:48.629Z,20.24
2022-09-23T20:49:17.738Z,20.25
2022-09-23T20:51:47.765Z,20.25
2022-09-23T20:54:17.817Z,20.24
2022-09-23T20:56:47.337Z,20.23
2022-09-23T20:59:17.559Z,20.23
2022-09-23T21:01:45.343Z,20.23
2022-09-23T21:04:13.220Z,20.22
2022-09-23T21:06:41.097Z,20.22
2022-09-23T21:09:08.714Z,20.23
2022-09-23T21:11:36.066Z,20.21
2022-09-23T21:14:03.939Z,20.22
2022-09-23T21:16:31.593Z,20.22
2022-09-23T21:18:59.826Z,20.21
2022-09-23T21:21:27.406Z,20.20
2022-09-23T21:23:58.221Z,20.20
2022-09-23T21:26:32.057Z,20.20
2022-09-23T21:29:00.985Z,20.20
2022-09-23T21:31:33.856Z,20.20
2022-09-23T21:34:11.099Z,20.20
2022-09-23T21:36:42.641Z,20.19
2022-09-23T21:39:11.599Z,20.19
2022-09-23T21:41:39.852Z,20.19
2022-09-23T21:44:08.322Z,20.19
2022-09-23T21:46:36.508Z,20.18
2022-09-23T21:49:04.950Z,20.17
2022-09-23T21:51:40.475Z,20.17
2022-09-23T21:54:15.511Z,20.17
2022-09-23T21:56:44.166Z,20.16
2022-09-23T21:59:11.848Z,20.17
2022-09-23T22:01:43.523Z,20.16
2022-09-23T22:04:17.503Z,20.14
2022-09-23T22:06:46.486Z,20.15
2022-09-23T22:09:16.821Z,20.14
2022-09-23T22:12:03.369Z,20.14
2022-09-23T22:14:32.187Z,20.13
2022-09-23T22:17:03.666Z,20.13
2022-09-23T22:19:35.393Z,20.13
2022-09-23T22:22:12.757Z,20.12
2022-09-23T22:24:41.413Z,20.12
2022-09-23T22:27:10.371Z,20.12
2022-09-23T22:29:56.779Z,20.12
2022-09-23T22:32:40.318Z,20.12
2022-09-23T22:35:13.433Z,20.11
2022-09-23T22:37:41.111Z,20.11
2022-09-23T22:40:13.907Z,20.11
2022-09-23T22:42:42.229Z,20.11
2022-09-23T22:45:11.965Z,20.10
2022-09-23T22:47:40.638Z,20.10
2022-09-23T22:50:09.385Z,20.09
2022-09-23T22:52:37.783Z,20.09
2022-09-23T22:55:08.078Z,20.09
2022-09-23T22:57:36.405Z,20.09
2022-09-23T23:00:07.832Z,20.08
2022-09-23T23:02:35.728Z,20.09
2022-09-23T23:05:03.613Z,20.07
2022-09-23T23:07:32.122Z,20.08
2022-09-23T23:09:59.383Z,20.07
2022-09-23T23:12:26.728Z,20.08
2022-09-23T23:14:54.796Z,20.07
2022-09-23T23:17:22.110Z,20.06
2022-09-23T23:19:50.784Z,20.06
2022-09-23T23:22:18.367Z,20.06
2022-09-23T23:24:45.893Z,20.05
2022-09-23T23:27:13.189Z,20.05
2022-09-23T23:29:40.671Z,20.05
2022-09-23T23:32:09.635Z,20.04
2022-09-23T23:34:37.012Z,20.03
2022-09-23T23:37:04.561Z,20.05
2022-09-23T23:39:33.614Z,20.03
2022-09-23T23:42:01.887Z,20.03
2022-09-23T23:44:32.093Z,20.02
2022-09-23T23:46:59.837Z,20.02
2022-09-23T23:49:28.649Z,20.03
2022-09-23T23:51:56.416Z,20.02
2022-09-23T23:54:23.693Z,20.02
2022-09-23T23:56:51.981Z,20.02
2022-09-23T23:59:20.079Z,20.01
